createdAt,value
2022-11-08T05:20:48.481Z,100687.84
2022-11-08T05:37:04.591Z,100710.25
2022-11-08T06:13:23.754Z,100755.91
2022-11-08T06:16:15.641Z,100697.44
2022-11-08T06:19:14.832Z,100718.69
2022-11-08T06:22:00.331Z,100752.91
2022-11-08T06:24:45.970Z,100710.53
2022-11-08T06:27:37.061Z,100698.50
2022-11-08T06:30:22.559Z,100716.16
2022-11-08T06:33:08.456Z,100708.56
2022-11-08T06:35:56.544Z,100722.94
2022-11-08T06:39:04.907Z,100683.34
2022-11-08T06:41:48.290Z,100693.59
2022-11-08T06:44:33.716Z,100692.09
2022-11-08T07:02:35.054Z,100724.59
2022-11-08T07:05:21.631Z,100718.19
2022-11-08T07:08:07.147Z,100735.41
2022-11-08T07:10:52.697Z,100685.16
2022-11-08T07:23:12.292Z,100699.06
2022-11-08T07:26:01.475Z,100754.59
2022-11-08T07:40:26.193Z,100729.69
2022-11-08T07:43:13.335Z,100712.69
2022-11-08T07:46:04.168Z,100715.75
2022-11-08T07:48:50.864Z,100704.59
2022-11-08T07:51:58.200Z,100666.22
2022-11-08T07:55:07.217Z,100721.56
2022-11-08T07:58:09.341Z,100680.88
2022-11-08T08:01:11.546Z,100689.72
2022-11-08T08:04:00.031Z,100694.78
2022-11-08T08:06:48.663Z,100691.44
2022-11-08T08:09:41.288Z,100644.84
2022-11-08T08:12:37.295Z,100687.19
2022-11-08T08:15:25.261Z,100719.56
2022-11-08T08:18:39.460Z,100713.50
2022-11-08T08:21:34.544Z,100698.16
2022-11-08T08:24:28.837Z,100684.72
2022-11-08T08:27:17.934Z,100711.28
2022-11-08T08:30:06.445Z,100678.50
2022-11-08T08:33:28.405Z,100692.88
2022-11-08T08:36:30.475Z,100648.56
2022-11-08T08:43:33.510Z,100686.53
2022-11-08T08:46:00.456Z,100663.59
2022-11-08T08:49:23.396Z,100653.78
2022-11-08T08:52:16.725Z,100678.34
2022-11-08T08:55:18.927Z,100648.41
2022-11-08T08:58:16.290Z,100683.34
2022-11-08T09:01:37.911Z,100700.94
2022-11-08T09:05:30.586Z,100684.31
2022-11-08T09:08:26.996Z,100638.63
2022-11-08T09:12:30.473Z,100619.56
2022-11-08T09:15:18.040Z,100646.22
2022-11-08T09:46:35.551Z,100654.22
2022-11-08T10:20:19.096Z,100562.03
2022-11-08T10:23:28.894Z,100607.00
2022-11-08T10:26:29.912Z,100574.84
2022-11-08T10:50:57.487Z,100573.53
2022-11-08T10:53:44.815Z,100546.66
2022-11-08T10:56:32.984Z,100546.31
2022-11-08T10:59:30.971Z,100535.75
2022-11-08T11:02:32.079Z,100522.88
2022-11-08T11:05:20.183Z,100527.00
2022-11-08T11:08:08.383Z,100527.38
2022-11-08T11:10:54.901Z,100508.41
2022-11-08T11:13:40.253Z,100450.84
2022-11-08T11:16:25.657Z,100467.16
2022-11-08T11:19:15.015Z,100438.59
2022-11-08T11:22:09.152Z,100467.69
2022-11-08T11:24:55.687Z,100491.59
2022-11-08T11:27:42.721Z,100502.44
2022-11-08T12:26:59.136Z,100409.09
2022-11-08T12:30:04.775Z,100451.00
2022-11-08T12:33:06.779Z,100432.06
2022-11-08T12:36:16.976Z,100443.44
2022-11-08T12:39:23.991Z,100436.88
2022-11-08T12:42:22.183Z,100383.75
2022-11-08T12:45:46.364Z,100420.03
2022-11-08T12:48:55.231Z,100384.19
2022-11-08T12:51:56.511Z,100409.84
2022-11-08T12:54:58.716Z,100359.72
2022-11-08T12:57:46.050Z,100408.56
2022-11-08T13:00:35.902Z,100422.41
2022-11-08T13:03:46.000Z,100421.34
2022-11-08T13:06:57.613Z,100414.00
2022-11-08T13:10:02.558Z,100412.75
2022-11-08T13:13:06.645Z,100371.47
2022-11-08T13:16:09.214Z,100416.66
2022-11-08T13:18:56.970Z,100415.84
2022-11-08T13:21:43.153Z,100400.03
2022-11-08T13:24:44.467Z,100381.16
2022-11-08T13:34:00.232Z,100412.44
2022-11-08T16:36:17.496Z,100353.25
2022-11-08T16:39:03.931Z,100352.75
2022-11-08T16:42:17.199Z,100326.09
2022-11-08T16:45:50.467Z,100316.47
2022-11-08T16:57:36.689Z,100309.06
2022-11-08T17:00:22.690Z,100315.13
2022-11-08T18:02:37.093Z,100307.69
